Tete-A-La-Baleine, Canada
Current Conditions -  °F | °C
As of 2:00 PM on Sunday 23 Nov 2014 (Local Time) from CWDH Reporting Station
Clear Clear  
Wind Chill: 18°   Ceiling: Unl
Heat Index: 31°   Visibility: 9mi
Dew Point: 18°   Wind: 20mph
Humidity: 59%   Direction: 280°W
Pressure: 29.64"   Gusts: NA
Location:  50.7°N, 59.33°W
Report Text: CWDH 231800Z AUTO 28017KT 9SM NSC M01/M08 A2964 RMK SLP039 PK WND 29024/// T10071079 10013 21007 70004 WSI/SWOB
Loading
Personal Weather Stations






























Interactive Weather Map New forecast layout! Learn more

10-Day Weather Forecast

Advertisements
Track Severe Weather on mobile